KCNW/CNW METAR and TAF weather

Enter ICAO airport designator
Station Type Date Time Source
KCNW METAR 2019/04/25 15:50 UTC NOAA

KCNW 251550Z 27004KT 10SM SKC 20/14 A2987


Station Type Date Time Source
KCNW Decoded METAR 2019/04/25 15:50 UTC NOAA

Station name not available
Apr 25, 2019 - 11:50 AM EDT / 2019.04.25 1550 UTC
Wind: from the W (270 degrees) at 5 MPH (4 KT):0
Visibility: 10 mile(s):0
Sky conditions: clear
Temperature: 68 F (20 C)
Dew Point: 57 F (14 C)
Relative Humidity: 68%
Pressure (altimeter): 29.87 in. Hg (1011 hPa)
ob: KCNW 251550Z 27004KT 10SM SKC 20/14 A2987
cycle: 16

Station Type Date Time Source
KCNW TAF UTC NOAA

Error!

Example: see airport list